createdAt,value
2022-11-20T00:00:57.927Z,5.40
2022-11-20T00:05:57.901Z,5.40
2022-11-20T00:10:57.902Z,5.40
2022-11-20T00:15:57.881Z,6.10
2022-11-20T00:20:57.920Z,6.10
2022-11-20T00:30:57.899Z,5.70
2022-11-20T00:35:57.881Z,5.70
2022-11-20T00:40:57.905Z,5.70
2022-11-20T00:45:57.906Z,6.60
2022-11-20T00:50:57.918Z,6.60
2022-11-20T00:55:57.920Z,6.60
2022-11-20T01:00:57.975Z,5.10
2022-11-20T01:05:57.904Z,5.10
2022-11-20T01:10:57.905Z,5.10
2022-11-20T01:20:57.966Z,5.30
2022-11-20T01:25:57.888Z,5.30
2022-11-20T01:30:57.949Z,5.20
2022-11-20T01:35:57.921Z,5.20
2022-11-20T01:40:57.883Z,5.20
2022-11-20T01:45:58.011Z,5.50
2022-11-20T01:50:57.931Z,5.50
2022-11-20T02:00:57.953Z,5.20
2022-11-20T02:05:57.918Z,5.20
2022-11-20T02:10:59.045Z,5.20
2022-11-20T02:15:57.904Z,5.10
2022-11-20T02:20:58.150Z,5.10
2022-11-20T02:25:57.915Z,5.10
2022-11-20T02:30:57.904Z,5.00
2022-11-20T02:35:57.908Z,5.00
2022-11-20T02:40:57.904Z,5.00
2022-11-20T02:45:57.903Z,4.70
2022-11-20T02:50:57.908Z,4.70
2022-11-20T02:55:57.932Z,4.70
2022-11-20T03:00:57.955Z,4.70
2022-11-20T03:10:57.936Z,4.70
2022-11-20T03:20:57.913Z,5.10
2022-11-20T03:25:57.942Z,5.10
2022-11-20T03:30:57.936Z,4.40
2022-11-20T03:35:57.911Z,4.40
2022-11-20T03:40:57.938Z,4.40
2022-11-20T03:45:57.936Z,4.80
2022-11-20T03:50:57.937Z,4.80
2022-11-20T04:00:58.016Z,5.40
2022-11-20T04:05:57.947Z,5.40
2022-11-20T04:10:57.940Z,5.40
2022-11-20T04:15:57.946Z,5.40
2022-11-20T04:20:57.946Z,5.40
2022-11-20T04:25:57.919Z,5.40
2022-11-20T04:30:57.953Z,4.80
2022-11-20T04:35:57.945Z,4.80
2022-11-20T04:40:57.951Z,4.80
2022-11-20T04:45:57.945Z,5.10
2022-11-20T04:50:57.958Z,5.10
2022-11-20T04:55:57.962Z,5.10
2022-11-20T05:00:57.918Z,4.60
2022-11-20T05:05:57.946Z,4.60
2022-11-20T05:10:57.960Z,4.60
2022-11-20T05:15:57.929Z,5.20
2022-11-20T05:20:57.969Z,5.20
2022-11-20T05:25:59.819Z,5.10
2022-11-20T05:35:57.943Z,5.10
2022-11-20T05:40:57.959Z,5.10
2022-11-20T05:45:57.938Z,5.10
2022-11-20T05:50:57.944Z,5.10
2022-11-20T05:55:57.958Z,5.10
2022-11-20T06:00:57.936Z,5.10
2022-11-20T06:05:57.932Z,5.10
2022-11-20T06:10:57.945Z,3.40
2022-11-20T06:15:57.949Z,3.40
2022-11-20T06:20:57.939Z,3.40
2022-11-20T06:25:57.943Z,5.40
2022-11-20T06:30:57.964Z,5.40
2022-11-20T06:36:00.912Z,5.40
2022-11-20T06:45:57.962Z,5.20
2022-11-20T06:50:57.944Z,5.20
2022-11-20T06:55:57.948Z,5.70
2022-11-20T07:00:58.030Z,5.70
2022-11-20T07:05:57.951Z,5.70
2022-11-20T07:10:57.948Z,4.70
2022-11-20T07:15:57.971Z,4.70
2022-11-20T07:35:57.957Z,4.90
2022-11-20T07:40:57.976Z,5.30
2022-11-20T07:45:57.958Z,5.30
2022-11-20T07:50:57.986Z,5.30
2022-11-20T07:55:57.985Z,5.30
2022-11-20T08:00:58.013Z,5.30
2022-11-20T08:05:57.981Z,5.30
2022-11-20T08:10:57.956Z,5.10
2022-11-20T08:15:57.959Z,5.10
2022-11-20T08:20:57.975Z,5.10
2022-11-20T08:25:57.996Z,5.80
2022-11-20T08:30:57.974Z,5.80
2022-11-20T08:35:57.989Z,5.80
2022-11-20T08:45:57.966Z,5.90
2022-11-20T08:50:57.979Z,5.90
2022-11-20T08:55:57.989Z,6.70
2022-11-20T09:05:57.991Z,6.70
2022-11-20T09:10:57.985Z,8.80
2022-11-20T09:15:58.001Z,8.80
2022-11-20T09:20:57.997Z,8.80
2022-11-20T09:25:57.970Z,6.40
2022-11-20T09:30:58.002Z,6.40
2022-11-20T09:35:57.959Z,6.40
2022-11-20T09:40:57.969Z,5.60
2022-11-20T09:45:58.044Z,5.60
2022-11-20T09:50:57.991Z,5.60
2022-11-20T09:55:57.966Z,7.90
2022-11-20T10:00:57.993Z,7.90
2022-11-20T10:05:57.997Z,7.90
2022-11-20T10:10:57.965Z,6.90
2022-11-20T10:15:57.973Z,6.90
2022-11-20T10:20:57.998Z,6.90
2022-11-20T10:25:58.009Z,8.60
2022-11-20T10:30:57.988Z,8.60
2022-11-20T10:35:58.001Z,8.60
2022-11-20T10:40:58.013Z,8.30
2022-11-20T10:45:57.985Z,8.30
2022-11-20T10:50:58.012Z,8.30
2022-11-20T10:55:58.014Z,7.90
2022-11-20T11:00:58.042Z,7.90
2022-11-20T11:05:58.036Z,7.90
2022-11-20T11:10:58.003Z,8.60
2022-11-20T11:15:57.986Z,8.60
2022-11-20T11:20:58.006Z,8.60
2022-11-20T11:25:58.027Z,10.30
2022-11-20T11:30:58.011Z,10.30
2022-11-20T11:35:57.985Z,10.30
2022-11-20T11:40:58.225Z,3.90
2022-11-20T11:45:58.015Z,3.90
2022-11-20T11:50:57.986Z,3.90
2022-11-20T11:55:58.006Z,4.80
2022-11-20T12:00:57.989Z,4.80
2022-11-20T12:05:58.022Z,4.80
2022-11-20T12:15:58.025Z,2.70
2022-11-20T12:20:58.020Z,2.70
2022-11-20T12:30:58.030Z,6.20
2022-11-20T12:35:57.987Z,6.20
2022-11-20T12:40:58.036Z,5.30
2022-11-20T12:45:58.034Z,5.30
2022-11-20T12:51:14.575Z,5.30
2022-11-20T12:55:58.000Z,3.90
2022-11-20T13:05:58.002Z,3.90
2022-11-20T13:10:58.002Z,5.00
2022-11-20T13:15:58.031Z,5.00
2022-11-20T13:20:58.004Z,5.00
2022-11-20T13:25:58.007Z,4.00
2022-11-20T13:30:58.038Z,4.00
2022-11-20T13:50:58.044Z,6.30
2022-11-20T13:55:58.002Z,8.60
2022-11-20T14:00:58.076Z,8.60
2022-11-20T14:05:58.044Z,8.60
2022-11-20T14:15:58.022Z,5.10
2022-11-20T14:20:58.010Z,5.10
2022-11-20T14:25:58.045Z,6.50
2022-11-20T14:30:58.019Z,6.50
2022-11-20T14:35:58.046Z,6.50
2022-11-20T14:45:58.007Z,8.10
2022-11-20T14:50:58.037Z,8.10
2022-11-20T14:55:58.933Z,3.30
2022-11-20T15:05:58.054Z,3.30
2022-11-20T15:10:58.018Z,3.00
2022-11-20T15:20:58.053Z,3.00
2022-11-20T15:30:58.021Z,3.30
2022-11-20T15:35:58.054Z,3.30
2022-11-20T15:40:58.032Z,7.80
2022-11-20T15:45:58.026Z,7.80
2022-11-20T15:50:58.033Z,7.80
2022-11-20T15:55:58.051Z,10.50
2022-11-20T16:00:58.075Z,10.50
2022-11-20T16:05:58.040Z,10.50
2022-11-20T16:46:12.385Z,4.40
2022-11-20T16:51:12.374Z,4.40
2022-11-20T17:11:12.658Z,6.80
2022-11-20T17:21:12.391Z,6.80
2022-11-20T17:26:12.393Z,4.00
2022-11-20T17:36:12.425Z,4.00
2022-11-20T17:56:12.405Z,7.00
2022-11-20T18:31:12.473Z,6.40
2022-11-20T18:36:12.399Z,6.40
2022-11-20T18:41:12.403Z,4.00
2022-11-20T18:46:13.076Z,4.00
2022-11-20T18:51:12.424Z,4.00
2022-11-20T18:56:12.460Z,8.00
2022-11-20T19:11:12.418Z,8.20
2022-11-20T19:16:12.416Z,8.20
2022-11-20T19:21:12.441Z,8.20
2022-11-20T19:26:12.409Z,7.30
2022-11-20T19:31:12.415Z,7.30
2022-11-20T19:36:12.442Z,7.30
2022-11-20T19:41:12.422Z,5.80
2022-11-20T19:46:12.417Z,5.80
2022-11-20T19:51:12.445Z,5.80
2022-11-20T19:56:12.432Z,7.30
2022-11-20T20:06:12.437Z,7.30
2022-11-20T20:11:12.460Z,8.10
2022-11-20T20:16:12.424Z,8.10
2022-11-20T20:21:12.460Z,8.10
2022-11-20T20:26:12.459Z,10.50
2022-11-20T20:31:12.454Z,10.50
2022-11-20T20:41:12.453Z,9.90
2022-11-20T20:46:12.454Z,9.90
2022-11-20T21:06:12.438Z,10.10
2022-11-20T21:11:12.470Z,8.90
2022-11-20T21:16:12.453Z,8.90
2022-11-20T21:21:12.442Z,8.90
2022-11-20T21:31:12.468Z,10.10
2022-11-20T21:56:16.361Z,10.00
2022-11-20T22:01:12.556Z,10.00
2022-11-20T22:06:12.444Z,10.00
2022-11-20T22:11:13.916Z,11.90
2022-11-20T22:16:12.450Z,11.90
2022-11-20T22:21:12.704Z,11.90
2022-11-20T22:26:12.460Z,10.70
2022-11-20T22:31:12.442Z,10.70
2022-11-20T22:36:13.596Z,10.70
2022-11-20T22:41:12.493Z,10.80
2022-11-20T22:56:12.481Z,10.40
2022-11-20T23:01:12.485Z,10.40
2022-11-20T23:06:12.447Z,10.40
2022-11-20T23:16:12.483Z,10.50
2022-11-20T23:21:12.461Z,10.50
2022-11-20T23:26:12.501Z,9.70
2022-11-20T23:31:12.481Z,9.70
2022-11-20T23:41:12.478Z,9.90
